logo
Search for airport 
image banner adimage banner adimage banner ad
image banner ad

FLCB - Chalata

Located in Mkushi River, Zambia

ICAO - , IATA -

Data provided by Airmate  

General information

Coordinates: S13°34'28" E29°38'24"
Elevation is 4589 feet MSL.
Magnetic variation is -4° East
View others Airports in Central Province

Operational data

Special qualification required
Current time UTC:
Current local time:
Weather at : - ( 0 km )
METAR: YBWW 202340Z AUTO 15006KT 9999 // SCT014 SCT022 BKN027 17/16 Q1020
View NOTAMs / SUP AIP / TFR affecting this airport [VIEW]
Communications frequencies: [VIEW]

Runways:

RWY identifierQFULength (ft)Width (ft)SurfaceLDA (ft)
27265°360498GRAS
0985°360498GRAS

Airport contact information

Address: Mkushi River Zambia

Satellite view of FLCB